createdAt,value
2018-07-31T00:00:32.883Z,1002.6
2018-07-31T00:01:34.343Z,1002.6
2018-07-31T00:02:35.746Z,1002.6
2018-07-31T00:03:37.143Z,1002.6
2018-07-31T00:04:38.531Z,1002.6
2018-07-31T00:05:39.929Z,1002.6
2018-07-31T00:06:41.326Z,1002.6
2018-07-31T00:07:42.723Z,1002.5
2018-07-31T00:08:44.115Z,1002.5
2018-07-31T00:09:45.510Z,1002.6
2018-07-31T00:10:46.914Z,1002.6
2018-07-31T00:11:48.337Z,1002.5
2018-07-31T00:12:49.772Z,1002.6
2018-07-31T00:13:51.169Z,1002.5
2018-07-31T00:14:52.560Z,1002.5
2018-07-31T00:15:53.955Z,1002.5
2018-07-31T00:16:55.354Z,1002.5
2018-07-31T00:17:56.746Z,1002.5
2018-07-31T00:18:58.141Z,1002.5
2018-07-31T00:19:59.542Z,1002.6
2018-07-31T00:21:00.943Z,1002.6
2018-07-31T00:22:02.344Z,1002.5
2018-07-31T00:23:03.738Z,1002.5
2018-07-31T00:24:05.138Z,1002.5
2018-07-31T00:25:06.532Z,1002.5
2018-07-31T00:26:07.929Z,1002.5
2018-07-31T00:27:09.325Z,1002.6
2018-07-31T00:28:10.755Z,1002.5
2018-07-31T00:29:12.194Z,1002.6
2018-07-31T00:30:13.587Z,1002.6
2018-07-31T00:31:14.984Z,1002.6
2018-07-31T00:32:16.384Z,1002.5
2018-07-31T00:33:17.778Z,1002.5
2018-07-31T00:34:19.176Z,1002.5
2018-07-31T00:35:20.570Z,1002.6
2018-07-31T00:36:21.970Z,1002.6
2018-07-31T00:37:23.385Z,1002.6
2018-07-31T00:38:24.781Z,1002.5
2018-07-31T00:39:26.185Z,1002.5
2018-07-31T00:40:27.586Z,1002.5
2018-07-31T00:41:28.989Z,1002.5
2018-07-31T00:42:30.383Z,1002.5
2018-07-31T00:43:31.784Z,1002.5
2018-07-31T00:44:33.179Z,1002.5
2018-07-31T00:45:34.583Z,1002.5
2018-07-31T00:46:35.978Z,1002.5
2018-07-31T00:47:37.381Z,1002.5
2018-07-31T00:48:38.769Z,1002.5
2018-07-31T00:49:40.169Z,1002.5
2018-07-31T00:50:41.565Z,1002.5
2018-07-31T00:51:42.962Z,1002.5
2018-07-31T00:52:44.359Z,1002.5
2018-07-31T00:53:45.756Z,1002.5
2018-07-31T00:54:47.155Z,1002.5
2018-07-31T00:55:48.548Z,1002.5
2018-07-31T00:56:49.945Z,1002.5
2018-07-31T00:57:51.342Z,1002.5
2018-07-31T00:58:52.735Z,1002.5
2018-07-31T00:59:54.130Z,1002.5
2018-07-31T01:00:55.524Z,1002.5
2018-07-31T01:01:56.925Z,1002.5
2018-07-31T01:02:58.321Z,1002.5
2018-07-31T01:03:59.720Z,1002.5
2018-07-31T01:05:01.123Z,1002.5
2018-07-31T01:06:02.514Z,1002.5
2018-07-31T01:07:03.904Z,1002.4
2018-07-31T01:08:05.431Z,1002.4
2018-07-31T01:09:06.875Z,1002.4
2018-07-31T01:10:08.273Z,1002.4
2018-07-31T01:11:09.669Z,1002.4
2018-07-31T01:12:11.069Z,1002.3
2018-07-31T01:13:12.463Z,1002.3
2018-07-31T01:14:13.854Z,1002.4
2018-07-31T01:15:15.250Z,1002.3
2018-07-31T01:16:16.651Z,1002.3
2018-07-31T01:17:18.045Z,1002.3
2018-07-31T01:18:19.447Z,1002.3
2018-07-31T01:19:20.845Z,1002.3
2018-07-31T01:20:22.246Z,1002.3
2018-07-31T01:21:23.644Z,1002.3
2018-07-31T01:22:25.031Z,1002.3
2018-07-31T01:23:26.424Z,1002.3
2018-07-31T01:24:27.818Z,1002.3
2018-07-31T01:25:29.215Z,1002.2
2018-07-31T01:26:30.610Z,1002.2
2018-07-31T01:27:32.002Z,1002.2
2018-07-31T01:28:33.394Z,1002.2
2018-07-31T01:29:34.792Z,1002.2
2018-07-31T01:30:36.189Z,1002.3
2018-07-31T01:31:37.586Z,1002.3
2018-07-31T01:32:38.982Z,1002.3
2018-07-31T01:33:40.377Z,1002.3
2018-07-31T01:34:41.778Z,1002.3
2018-07-31T01:35:43.173Z,1002.3
2018-07-31T01:36:44.570Z,1002.3
2018-07-31T01:37:45.964Z,1002.3
2018-07-31T01:38:47.355Z,1002.4
2018-07-31T01:39:48.750Z,1002.4
2018-07-31T01:40:50.151Z,1002.4
2018-07-31T01:41:51.543Z,1002.4
2018-07-31T01:42:52.937Z,1002.3
2018-07-31T01:43:54.329Z,1002.3
2018-07-31T01:44:55.721Z,1002.3
2018-07-31T01:45:57.209Z,1002.3
2018-07-31T01:46:58.562Z,1002.4
2018-07-31T01:47:59.953Z,1002.3
2018-07-31T01:49:01.385Z,1002.4
2018-07-31T01:50:02.785Z,1002.4
2018-07-31T01:51:04.179Z,1002.3
2018-07-31T01:52:05.584Z,1002.3
2018-07-31T01:53:06.976Z,1002.4
2018-07-31T01:54:08.369Z,1002.3
2018-07-31T01:55:09.767Z,1002.4
2018-07-31T01:56:11.161Z,1002.3
2018-07-31T01:57:12.562Z,1002.3
2018-07-31T01:58:13.955Z,1002.3
2018-07-31T01:59:15.353Z,1002.3
2018-07-31T02:00:16.747Z,1002.3
2018-07-31T02:01:18.146Z,1002.2
2018-07-31T02:02:19.544Z,1002.3
2018-07-31T02:03:20.935Z,1002.3
2018-07-31T02:04:22.328Z,1002.3
2018-07-31T02:05:23.728Z,1002.3
2018-07-31T02:06:25.123Z,1002.3
2018-07-31T02:07:26.526Z,1002.2
2018-07-31T02:08:27.916Z,1002.2
2018-07-31T02:09:29.332Z,1002.2
2018-07-31T02:10:30.728Z,1002.2
2018-07-31T02:11:32.126Z,1002.2
2018-07-31T02:12:33.523Z,1002.2
2018-07-31T02:13:34.916Z,1002.2
2018-07-31T02:14:36.313Z,1002.2
2018-07-31T02:15:37.710Z,1002.2
2018-07-31T02:16:39.109Z,1002.2
2018-07-31T02:17:40.504Z,1002.2
2018-07-31T02:18:41.901Z,1002.2
2018-07-31T02:19:43.296Z,1002.2
2018-07-31T02:20:44.688Z,1002.2
2018-07-31T02:21:46.082Z,1002.2
2018-07-31T02:22:47.480Z,1002.2
2018-07-31T02:23:48.883Z,1002.2
2018-07-31T02:24:50.281Z,1002.3
2018-07-31T02:25:51.673Z,1002.3
2018-07-31T02:26:53.063Z,1002.3
2018-07-31T02:27:54.510Z,1002.3
2018-07-31T02:28:56.010Z,1002.3
2018-07-31T02:29:57.413Z,1002.3
2018-07-31T02:30:58.810Z,1002.3
2018-07-31T02:32:00.206Z,1002.3
2018-07-31T02:33:01.597Z,1002.3
2018-07-31T02:34:02.991Z,1002.3
2018-07-31T02:35:04.385Z,1002.3
2018-07-31T02:36:05.791Z,1002.3
2018-07-31T02:37:07.175Z,1002.3
2018-07-31T02:38:08.574Z,1002.3
2018-07-31T02:39:10.005Z,1002.3
2018-07-31T02:40:11.406Z,1002.3
2018-07-31T02:41:12.802Z,1002.2
2018-07-31T02:42:14.200Z,1002.3
2018-07-31T02:43:15.623Z,1002.2
2018-07-31T02:44:17.008Z,1002.2
2018-07-31T02:45:18.405Z,1002.2
2018-07-31T02:46:19.799Z,1002.2
2018-07-31T02:47:21.176Z,1002.2
2018-07-31T02:48:22.569Z,1002.2
2018-07-31T02:49:23.967Z,1002.2
2018-07-31T02:50:25.362Z,1002.2
2018-07-31T02:51:26.756Z,1002.2
2018-07-31T02:52:28.152Z,1002.2
2018-07-31T02:53:29.547Z,1002.2
2018-07-31T02:54:30.937Z,1002.3
2018-07-31T02:55:32.339Z,1002.2
2018-07-31T02:56:33.727Z,1002.2
2018-07-31T02:57:35.124Z,1002.2
2018-07-31T02:58:36.520Z,1002.2
2018-07-31T02:59:37.916Z,1002.2
2018-07-31T03:00:39.319Z,1002.2
2018-07-31T03:01:40.716Z,1002.2
2018-07-31T03:02:42.109Z,1002.2
2018-07-31T03:03:43.501Z,1002.1
2018-07-31T03:04:44.900Z,1002.1
2018-07-31T03:05:46.296Z,1002.1
2018-07-31T03:06:47.693Z,1002.1
2018-07-31T03:07:49.096Z,1002.1
2018-07-31T03:08:50.542Z,1002.1
2018-07-31T03:09:51.990Z,1002.1
2018-07-31T03:10:53.390Z,1002.2
2018-07-31T03:11:54.780Z,1002.1
2018-07-31T03:12:56.182Z,1002.1
2018-07-31T03:13:57.575Z,1002.1
2018-07-31T03:14:58.973Z,1002.2
2018-07-31T03:16:00.374Z,1002.2
2018-07-31T03:17:01.769Z,1002.2
2018-07-31T03:18:03.165Z,1002.2
2018-07-31T03:19:04.564Z,1002.1
2018-07-31T03:20:05.960Z,1002.1
2018-07-31T03:21:07.358Z,1002.1
2018-07-31T03:22:08.752Z,1002.2
2018-07-31T03:23:10.145Z,1002.2
2018-07-31T03:24:11.536Z,1002.2
2018-07-31T03:25:12.932Z,1002.2
2018-07-31T03:26:14.330Z,1002.2
2018-07-31T03:27:15.730Z,1002.2
2018-07-31T03:28:17.186Z,1002.2
2018-07-31T03:29:18.531Z,1002.3
2018-07-31T03:30:19.985Z,1002.3
2018-07-31T03:31:21.356Z,1002.3
2018-07-31T03:32:22.749Z,1002.2
2018-07-31T03:33:24.146Z,1002.2
2018-07-31T03:34:25.542Z,1002.2
2018-07-31T03:35:26.948Z,1002.2
2018-07-31T03:36:28.347Z,1002.2
2018-07-31T03:37:29.738Z,1002.2
2018-07-31T03:38:31.160Z,1002.2
2018-07-31T03:39:32.554Z,1002.2
2018-07-31T03:40:33.944Z,1002.2
2018-07-31T03:41:35.342Z,1002.2
2018-07-31T03:42:36.755Z,1002.2
2018-07-31T03:43:38.149Z,1002.1
2018-07-31T03:44:39.544Z,1002.1
2018-07-31T03:45:40.947Z,1002.2
2018-07-31T03:46:42.341Z,1002.1
2018-07-31T03:47:43.738Z,1002.1
2018-07-31T03:48:45.131Z,1002.1
2018-07-31T03:49:46.697Z,1002.1
2018-07-31T03:50:48.089Z,1002.1
2018-07-31T03:51:49.507Z,1002.1
2018-07-31T03:52:50.946Z,1002.1
2018-07-31T03:53:52.699Z,1002.1
2018-07-31T03:54:54.283Z,1002.2
2018-07-31T03:55:56.055Z,1002.2
2018-07-31T03:56:57.448Z,1002.2
2018-07-31T03:57:58.845Z,1002.2
2018-07-31T03:59:00.300Z,1002.2
2018-07-31T04:00:01.705Z,1002.2
2018-07-31T04:01:03.114Z,1002.2
2018-07-31T04:02:04.529Z,1002.2
2018-07-31T04:03:05.935Z,1002.2
2018-07-31T04:04:07.336Z,1002.2
2018-07-31T04:05:08.729Z,1002.2
2018-07-31T04:06:10.158Z,1002.2
2018-07-31T04:07:11.602Z,1002.2
2018-07-31T04:08:13.001Z,1002.2
2018-07-31T04:09:14.444Z,1002.2
2018-07-31T04:10:15.876Z,1002.2
2018-07-31T04:11:17.300Z,1002.2
2018-07-31T04:12:18.697Z,1002.2
2018-07-31T04:13:20.098Z,1002.1
2018-07-31T04:14:21.500Z,1002.2
2018-07-31T04:15:22.898Z,1002.2
2018-07-31T04:16:24.293Z,1002.1
2018-07-31T04:17:25.690Z,1002.1
2018-07-31T04:18:27.087Z,1002.1
2018-07-31T04:19:28.484Z,1002.1
2018-07-31T04:20:29.881Z,1002.1
2018-07-31T04:21:31.282Z,1002.1
2018-07-31T04:22:32.685Z,1002.2
2018-07-31T04:23:34.081Z,1002.2
2018-07-31T04:24:35.481Z,1002.2
2018-07-31T04:25:36.881Z,1002.2
2018-07-31T04:26:38.275Z,1002.2
2018-07-31T04:27:39.740Z,1002.2
2018-07-31T04:28:41.154Z,1002.2
2018-07-31T04:29:42.558Z,1002.2
2018-07-31T04:30:43.960Z,1002.3
2018-07-31T04:31:45.361Z,1002.3
2018-07-31T04:32:46.770Z,1002.3
2018-07-31T04:33:48.170Z,1002.3
2018-07-31T04:34:49.572Z,1002.3
2018-07-31T04:35:50.985Z,1002.3
2018-07-31T04:36:52.371Z,1002.3
2018-07-31T04:37:53.769Z,1002.3
2018-07-31T04:38:55.168Z,1002.4
2018-07-31T04:39:56.566Z,1002.3
2018-07-31T04:40:57.969Z,1002.3
2018-07-31T04:41:59.367Z,1002.3
2018-07-31T04:43:00.810Z,1002.3
2018-07-31T04:44:02.215Z,1002.3
2018-07-31T04:45:03.604Z,1002.3
2018-07-31T04:46:05.002Z,1002.3
2018-07-31T04:47:06.402Z,1002.3
2018-07-31T04:48:07.799Z,1002.2
2018-07-31T04:49:09.201Z,1002.2
2018-07-31T04:50:10.603Z,1002.2
2018-07-31T04:51:12.006Z,1002.2
2018-07-31T04:52:13.399Z,1002.2
2018-07-31T04:53:14.798Z,1002.2
2018-07-31T04:54:16.198Z,1002.2
2018-07-31T04:55:17.591Z,1002.2
2018-07-31T04:56:18.990Z,1002.2
2018-07-31T04:57:20.390Z,1002.2
2018-07-31T04:58:21.791Z,1002.2
2018-07-31T04:59:23.186Z,1002.2
2018-07-31T05:00:24.584Z,1002.2
2018-07-31T05:01:25.983Z,1002.2
2018-07-31T05:02:27.382Z,1002.3
2018-07-31T05:03:28.782Z,1002.3
2018-07-31T05:04:30.243Z,1002.3
2018-07-31T05:05:31.572Z,1002.3
2018-07-31T05:06:32.972Z,1002.3
2018-07-31T05:07:34.367Z,1002.3
2018-07-31T05:08:35.848Z,1002.3
2018-07-31T05:09:37.243Z,1002.3
2018-07-31T05:10:38.636Z,1002.4
2018-07-31T05:11:40.037Z,1002.4
2018-07-31T05:12:41.435Z,1002.4
2018-07-31T05:13:42.833Z,1002.4
2018-07-31T05:14:44.248Z,1002.4
2018-07-31T05:15:45.652Z,1002.4
2018-07-31T05:16:47.063Z,1002.4
2018-07-31T05:17:48.451Z,1002.4
2018-07-31T05:18:49.853Z,1002.5
2018-07-31T05:19:51.251Z,1002.5
2018-07-31T05:20:52.710Z,1002.4
2018-07-31T05:21:54.113Z,1002.4
2018-07-31T05:22:55.511Z,1002.4
2018-07-31T05:23:56.949Z,1002.4
2018-07-31T05:24:58.353Z,1002.4
2018-07-31T05:25:59.753Z,1002.4
2018-07-31T05:27:01.150Z,1002.5
2018-07-31T05:28:02.551Z,1002.5
2018-07-31T05:29:03.954Z,1002.5
2018-07-31T05:30:05.350Z,1002.6
2018-07-31T05:31:06.744Z,1002.5
2018-07-31T05:32:08.144Z,1002.6
2018-07-31T05:33:09.541Z,1002.6
2018-07-31T05:34:10.943Z,1002.6
2018-07-31T05:35:12.343Z,1002.6
2018-07-31T05:36:13.743Z,1002.6
2018-07-31T05:37:15.146Z,1002.6
2018-07-31T05:38:16.544Z,1002.6
2018-07-31T05:39:17.943Z,1002.6
2018-07-31T05:40:19.340Z,1002.6
2018-07-31T05:41:20.741Z,1002.6
2018-07-31T05:42:22.140Z,1002.6
2018-07-31T05:43:23.543Z,1002.6
2018-07-31T05:44:24.942Z,1002.6
2018-07-31T05:45:26.335Z,1002.6
2018-07-31T05:46:27.735Z,1002.6
2018-07-31T05:47:29.155Z,1002.6
2018-07-31T05:48:30.644Z,1002.6
2018-07-31T05:49:32.048Z,1002.6
2018-07-31T05:50:33.448Z,1002.6
2018-07-31T05:51:34.845Z,1002.6
2018-07-31T05:52:36.248Z,1002.6
2018-07-31T05:53:37.643Z,1002.6
2018-07-31T05:54:39.040Z,1002.6
2018-07-31T05:55:40.442Z,1002.7
2018-07-31T05:56:41.841Z,1002.7
2018-07-31T05:57:43.248Z,1002.6
2018-07-31T05:58:44.637Z,1002.7
2018-07-31T05:59:46.037Z,1002.7
2018-07-31T06:00:47.426Z,1002.7
2018-07-31T06:01:48.834Z,1002.7
2018-07-31T06:02:50.228Z,1002.7
2018-07-31T06:03:51.627Z,1002.7
2018-07-31T06:04:53.025Z,1002.8
2018-07-31T06:05:54.422Z,1002.7
2018-07-31T06:06:55.822Z,1002.8
2018-07-31T06:07:57.219Z,1002.7
2018-07-31T06:08:58.637Z,1002.7
2018-07-31T06:10:00.040Z,1002.7
2018-07-31T06:11:01.436Z,1002.7
2018-07-31T06:12:02.843Z,1002.7
2018-07-31T06:13:04.238Z,1002.7
2018-07-31T06:14:05.644Z,1002.8
2018-07-31T06:15:07.047Z,1002.7
2018-07-31T06:16:08.424Z,1002.8
2018-07-31T06:17:09.828Z,1002.8
2018-07-31T06:18:11.236Z,1002.8
2018-07-31T06:19:12.637Z,1002.8
2018-07-31T06:20:14.039Z,1002.8
2018-07-31T06:21:15.435Z,1002.8
2018-07-31T06:22:16.833Z,1002.8
2018-07-31T06:23:18.234Z,1002.8
2018-07-31T06:24:19.636Z,1002.8
2018-07-31T06:25:21.035Z,1002.8
2018-07-31T06:26:22.435Z,1002.8
2018-07-31T06:27:23.832Z,1002.8
2018-07-31T06:28:25.342Z,1002.8
2018-07-31T06:29:26.752Z,1002.8
2018-07-31T06:30:28.151Z,1002.8
2018-07-31T06:31:29.550Z,1002.9
2018-07-31T06:32:30.951Z,1002.9
2018-07-31T06:33:32.345Z,1002.9
2018-07-31T06:34:33.760Z,1002.9
2018-07-31T06:35:35.138Z,1002.9
2018-07-31T06:36:36.538Z,1002.9
2018-07-31T06:37:37.932Z,1002.9
2018-07-31T06:38:39.328Z,1002.9
2018-07-31T06:39:40.725Z,1002.9
2018-07-31T06:40:42.127Z,1002.9
2018-07-31T06:41:43.529Z,1002.9
2018-07-31T06:42:44.928Z,1002.9
2018-07-31T06:43:46.326Z,1002.8
2018-07-31T06:44:47.727Z,1002.8
2018-07-31T06:45:49.128Z,1002.8
2018-07-31T06:46:50.527Z,1002.8
2018-07-31T06:47:51.929Z,1002.8
2018-07-31T06:48:53.336Z,1002.8
2018-07-31T06:49:54.728Z,1002.9
2018-07-31T06:50:56.127Z,1002.9
2018-07-31T06:51:57.532Z,1002.9
2018-07-31T06:52:58.929Z,1002.9
2018-07-31T06:54:00.332Z,1002.9
2018-07-31T06:55:01.731Z,1002.9
2018-07-31T06:56:03.137Z,1002.9
2018-07-31T06:57:04.534Z,1002.9
2018-07-31T06:58:05.935Z,1002.9
2018-07-31T06:59:07.337Z,1002.9
2018-07-31T07:00:08.739Z,1002.9
2018-07-31T07:01:10.145Z,1003.0
2018-07-31T07:02:11.551Z,1003.0
2018-07-31T07:03:12.946Z,1002.9
2018-07-31T07:04:14.344Z,1002.9
2018-07-31T07:05:15.741Z,1002.8
2018-07-31T07:06:17.140Z,1002.8
2018-07-31T07:07:18.537Z,1002.7
2018-07-31T07:08:20.045Z,1002.7
2018-07-31T07:09:21.515Z,1002.7
2018-07-31T07:10:22.851Z,1002.7
2018-07-31T07:11:24.251Z,1002.7
2018-07-31T07:12:25.655Z,1002.6
2018-07-31T07:13:27.059Z,1002.6
2018-07-31T07:14:28.463Z,1002.6
2018-07-31T07:15:29.879Z,1002.6
2018-07-31T07:16:31.263Z,1002.6
2018-07-31T07:17:32.666Z,1002.6
2018-07-31T07:18:34.067Z,1002.6
2018-07-31T07:19:35.471Z,1002.7
2018-07-31T07:20:36.872Z,1002.7
2018-07-31T07:21:38.275Z,1002.8
2018-07-31T07:22:39.716Z,1002.8
2018-07-31T07:23:41.087Z,1002.9
2018-07-31T07:24:42.489Z,1002.9
2018-07-31T07:25:43.887Z,1002.9
2018-07-31T07:26:45.288Z,1002.9
2018-07-31T07:27:46.694Z,1002.9
2018-07-31T07:28:48.116Z,1002.9
2018-07-31T07:29:49.496Z,1002.9
2018-07-31T07:30:50.903Z,1002.8
2018-07-31T07:31:52.306Z,1002.8
2018-07-31T07:32:53.710Z,1002.8
2018-07-31T07:33:55.177Z,1002.9
2018-07-31T07:34:56.513Z,1002.9
2018-07-31T07:35:57.912Z,1002.8
2018-07-31T07:36:59.317Z,1002.8
2018-07-31T07:38:00.724Z,1002.8
2018-07-31T07:39:02.125Z,1002.8
2018-07-31T07:40:03.542Z,1002.8
2018-07-31T07:41:04.941Z,1002.8
2018-07-31T07:42:06.347Z,1002.8
2018-07-31T07:43:07.759Z,1002.8
2018-07-31T07:44:09.168Z,1002.8
2018-07-31T07:45:10.571Z,1002.8
2018-07-31T07:46:11.972Z,1002.8
2018-07-31T07:47:13.373Z,1002.9
2018-07-31T07:48:14.864Z,1002.9
2018-07-31T07:49:16.307Z,1002.9
2018-07-31T07:50:17.707Z,1002.9
2018-07-31T07:51:20.907Z,1002.9
2018-07-31T07:52:22.379Z,1002.9
2018-07-31T07:53:23.784Z,1002.8
2018-07-31T07:54:25.191Z,1002.8
2018-07-31T07:55:26.600Z,1002.8
2018-07-31T07:56:27.993Z,1002.8
2018-07-31T07:57:29.394Z,1002.8
2018-07-31T07:58:30.795Z,1002.8
2018-07-31T07:59:32.201Z,1002.8
2018-07-31T08:00:33.607Z,1002.8
2018-07-31T08:01:35.005Z,1002.8
2018-07-31T08:02:36.408Z,1002.8
2018-07-31T08:03:37.857Z,1002.8
2018-07-31T08:04:39.211Z,1002.8
2018-07-31T08:05:40.619Z,1002.8
2018-07-31T08:06:42.013Z,1002.8
2018-07-31T08:07:43.420Z,1002.9
2018-07-31T08:08:44.873Z,1002.9
2018-07-31T08:09:46.314Z,1002.9
2018-07-31T08:10:47.678Z,1003.0
2018-07-31T08:11:49.080Z,1003.0
2018-07-31T08:12:50.481Z,1003.0
2018-07-31T08:13:51.884Z,1003.0
2018-07-31T08:14:53.315Z,1003.0
2018-07-31T08:15:54.686Z,1003.0
2018-07-31T08:16:56.086Z,1003.0
2018-07-31T08:17:57.491Z,1003.0
2018-07-31T08:18:58.910Z,1003.1
2018-07-31T08:20:00.315Z,1003.0
2018-07-31T08:21:01.734Z,1003.1
2018-07-31T08:22:03.141Z,1003.1
2018-07-31T08:23:04.543Z,1003.1
2018-07-31T08:24:05.947Z,1003.0
2018-07-31T08:25:07.667Z,1003.1
2018-07-31T08:26:09.080Z,1003.1
2018-07-31T08:27:10.483Z,1003.0
2018-07-31T08:28:11.886Z,1003.0
2018-07-31T08:29:13.291Z,1003.0
2018-07-31T08:30:14.694Z,1003.0
2018-07-31T08:31:16.101Z,1003.0
2018-07-31T08:32:17.506Z,1003.0
2018-07-31T08:33:18.906Z,1003.1
2018-07-31T08:34:20.332Z,1003.0
2018-07-31T08:35:21.713Z,1003.1
2018-07-31T08:36:23.123Z,1003.1
2018-07-31T08:37:24.529Z,1003.1
2018-07-31T08:38:25.934Z,1003.1
2018-07-31T08:39:27.333Z,1003.0
2018-07-31T08:40:28.734Z,1003.1
2018-07-31T08:41:30.148Z,1003.2
2018-07-31T08:42:31.551Z,1003.1
2018-07-31T08:43:32.958Z,1003.1
2018-07-31T08:44:34.365Z,1003.2
2018-07-31T08:45:35.766Z,1003.1
2018-07-31T08:46:37.170Z,1003.2
2018-07-31T08:47:38.572Z,1003.2
2018-07-31T08:48:39.986Z,1003.2
2018-07-31T08:49:41.390Z,1003.2
2018-07-31T08:50:42.808Z,1003.2
2018-07-31T08:51:44.212Z,1003.3
2018-07-31T08:52:45.616Z,1003.2
2018-07-31T08:53:47.024Z,1003.3
2018-07-31T08:54:48.423Z,1003.2
2018-07-31T08:55:49.886Z,1003.2
2018-07-31T08:56:51.272Z,1003.2
2018-07-31T08:57:52.628Z,1003.2
2018-07-31T08:58:54.026Z,1003.2
2018-07-31T08:59:55.432Z,1003.2
2018-07-31T09:00:56.832Z,1003.2
2018-07-31T09:01:58.247Z,1003.2
2018-07-31T09:02:59.665Z,1003.2
2018-07-31T09:04:01.072Z,1003.2
2018-07-31T09:05:02.531Z,1003.2
2018-07-31T09:06:03.937Z,1003.2
2018-07-31T09:07:05.338Z,1003.2
2018-07-31T09:08:06.811Z,1003.2
2018-07-31T09:09:08.152Z,1003.3
2018-07-31T09:10:10.272Z,1003.3
2018-07-31T09:11:11.679Z,1003.2
2018-07-31T09:12:13.087Z,1003.2
2018-07-31T09:13:14.488Z,1003.2
2018-07-31T09:14:16.020Z,1003.2
2018-07-31T09:15:17.425Z,1003.3
2018-07-31T09:16:18.831Z,1003.3
2018-07-31T09:17:20.235Z,1003.3
2018-07-31T09:18:21.637Z,1003.3
2018-07-31T09:19:23.042Z,1003.2
2018-07-31T09:20:24.896Z,1003.3
2018-07-31T09:21:26.276Z,1003.3
2018-07-31T09:22:27.788Z,1003.3
2018-07-31T09:23:29.300Z,1003.3
2018-07-31T09:24:30.742Z,1003.3
2018-07-31T09:25:32.136Z,1003.3
2018-07-31T09:26:33.546Z,1003.3
2018-07-31T09:27:34.944Z,1003.3
2018-07-31T09:28:36.347Z,1003.3
2018-07-31T09:29:37.793Z,1003.3
2018-07-31T09:30:39.273Z,1003.3
2018-07-31T09:31:40.610Z,1003.4
2018-07-31T09:32:42.014Z,1003.3
2018-07-31T09:33:43.422Z,1003.4
2018-07-31T09:34:44.834Z,1003.4
2018-07-31T09:35:46.228Z,1003.4
2018-07-31T09:36:47.630Z,1003.4
2018-07-31T09:37:49.032Z,1003.5
2018-07-31T09:38:50.440Z,1003.4
2018-07-31T09:39:51.844Z,1003.4
2018-07-31T09:40:53.248Z,1003.4
2018-07-31T09:41:54.732Z,1003.4
2018-07-31T09:42:56.133Z,1003.5
2018-07-31T09:43:57.537Z,1003.4
2018-07-31T09:44:58.939Z,1003.4
2018-07-31T09:46:00.349Z,1003.4
2018-07-31T09:47:01.752Z,1003.4
2018-07-31T09:48:03.165Z,1003.4
2018-07-31T09:49:04.561Z,1003.5
2018-07-31T09:50:05.967Z,1003.5
2018-07-31T09:51:07.362Z,1003.4
2018-07-31T09:52:08.818Z,1003.4
2018-07-31T09:53:10.213Z,1003.4
2018-07-31T09:54:11.615Z,1003.5
2018-07-31T09:55:13.023Z,1003.4
2018-07-31T09:56:14.472Z,1003.5
2018-07-31T09:57:15.943Z,1003.5
2018-07-31T09:58:17.275Z,1003.6
2018-07-31T09:59:18.686Z,1003.5
2018-07-31T10:00:20.090Z,1003.5
2018-07-31T10:01:21.492Z,1003.6
2018-07-31T10:02:22.900Z,1003.6
2018-07-31T10:03:24.316Z,1003.6
2018-07-31T10:04:25.721Z,1003.6
2018-07-31T10:05:27.121Z,1003.6
2018-07-31T10:06:28.524Z,1003.6
2018-07-31T10:07:29.928Z,1003.7
2018-07-31T10:08:31.335Z,1003.6
2018-07-31T10:09:32.740Z,1003.6
2018-07-31T10:10:34.141Z,1003.7
2018-07-31T10:11:35.542Z,1003.6
2018-07-31T10:12:36.944Z,1003.6
2018-07-31T10:13:38.349Z,1003.6
2018-07-31T10:14:39.755Z,1003.6
2018-07-31T10:15:41.162Z,1003.6
2018-07-31T10:16:42.573Z,1003.6
2018-07-31T10:17:44.047Z,1003.6
2018-07-31T10:18:45.378Z,1003.6
2018-07-31T10:19:46.783Z,1003.7
2018-07-31T10:20:48.247Z,1003.6
2018-07-31T10:21:49.663Z,1003.6
2018-07-31T10:22:52.124Z,1003.7
2018-07-31T10:23:53.542Z,1003.7
2018-07-31T10:24:54.956Z,1003.6
2018-07-31T10:25:56.358Z,1003.6
2018-07-31T10:26:57.771Z,1003.6
2018-07-31T10:27:59.176Z,1003.6
2018-07-31T10:29:00.658Z,1003.6
2018-07-31T10:30:02.068Z,1003.7
2018-07-31T10:31:03.547Z,1003.7
2018-07-31T10:32:04.834Z,1003.7
2018-07-31T10:33:06.239Z,1003.7
2018-07-31T10:34:07.639Z,1003.7
2018-07-31T10:35:09.042Z,1003.7
2018-07-31T10:36:10.455Z,1003.7
2018-07-31T10:37:11.861Z,1003.7
2018-07-31T10:38:13.265Z,1003.8
2018-07-31T10:39:14.678Z,1003.9
2018-07-31T10:40:16.077Z,1003.8
2018-07-31T10:41:17.479Z,1003.8
2018-07-31T10:42:18.886Z,1003.8
2018-07-31T10:43:20.291Z,1003.8
2018-07-31T10:44:21.702Z,1003.7
2018-07-31T10:45:23.114Z,1003.8
2018-07-31T10:46:24.522Z,1003.7
2018-07-31T10:47:25.926Z,1003.7
2018-07-31T10:48:27.334Z,1003.7
2018-07-31T10:49:28.742Z,1003.8
2018-07-31T10:50:30.194Z,1003.8
2018-07-31T10:51:31.553Z,1003.8
2018-07-31T10:52:32.961Z,1003.8
2018-07-31T10:53:34.381Z,1003.9
2018-07-31T10:54:35.773Z,1003.8
2018-07-31T10:55:37.178Z,1003.8
2018-07-31T10:56:38.591Z,1003.8
2018-07-31T10:57:40.052Z,1003.9
2018-07-31T10:58:41.562Z,1003.8
2018-07-31T10:59:43.012Z,1003.8
2018-07-31T11:00:44.298Z,1003.8
2018-07-31T11:01:45.706Z,1003.8
2018-07-31T11:02:47.123Z,1003.8
2018-07-31T11:03:48.546Z,1003.7
2018-07-31T11:04:49.924Z,1003.9
2018-07-31T11:05:51.329Z,1003.8
2018-07-31T11:06:52.738Z,1003.8
2018-07-31T11:07:54.143Z,1003.8
2018-07-31T11:08:55.547Z,1003.8
2018-07-31T11:09:56.956Z,1003.8
2018-07-31T11:10:58.366Z,1003.8
2018-07-31T11:11:59.781Z,1003.9
2018-07-31T11:13:01.185Z,1003.9
2018-07-31T11:14:02.609Z,1003.9
2018-07-31T11:15:04.038Z,1003.9
2018-07-31T11:16:05.452Z,1003.9
2018-07-31T11:17:06.896Z,1003.9
2018-07-31T11:18:08.309Z,1003.8
2018-07-31T11:19:09.724Z,1003.8
2018-07-31T11:20:11.157Z,1003.8
2018-07-31T11:21:12.596Z,1003.8
2018-07-31T11:22:13.955Z,1003.8
2018-07-31T11:23:15.359Z,1004.0
2018-07-31T11:24:16.773Z,1003.8
2018-07-31T11:25:18.183Z,1003.8
2018-07-31T11:26:19.632Z,1003.8
2018-07-31T11:27:21.072Z,1003.8
2018-07-31T11:28:22.450Z,1003.9
2018-07-31T11:29:23.858Z,1003.9
2018-07-31T11:30:25.268Z,1003.9
2018-07-31T11:31:26.680Z,1003.8
2018-07-31T11:32:28.085Z,1003.9
2018-07-31T11:33:29.499Z,1003.9
2018-07-31T11:34:30.913Z,1003.9
2018-07-31T11:35:32.325Z,1003.9
2018-07-31T11:36:33.843Z,1003.9
2018-07-31T11:37:35.279Z,1004.0
2018-07-31T11:38:36.695Z,1003.9
2018-07-31T11:39:38.110Z,1004.0
2018-07-31T11:40:39.528Z,1004.0
2018-07-31T11:41:40.944Z,1003.9
2018-07-31T11:42:42.355Z,1004.0
2018-07-31T11:43:43.773Z,1003.9
2018-07-31T11:44:45.182Z,1003.8
2018-07-31T11:45:46.589Z,1003.9
2018-07-31T11:46:48.000Z,1004.0
2018-07-31T11:47:49.412Z,1003.9
2018-07-31T11:48:50.855Z,1003.9
2018-07-31T11:49:52.255Z,1003.8
2018-07-31T11:50:53.650Z,1003.8
2018-07-31T11:51:55.056Z,1003.9
2018-07-31T11:52:56.467Z,1003.8
2018-07-31T11:53:57.876Z,1003.9
2018-07-31T11:54:59.287Z,1003.7
2018-07-31T11:56:00.707Z,1003.7
2018-07-31T11:57:02.124Z,1003.9
2018-07-31T11:58:03.533Z,1003.7
2018-07-31T11:59:04.942Z,1003.6
2018-07-31T12:00:06.352Z,1003.6
2018-07-31T12:01:07.759Z,1003.6
2018-07-31T12:02:09.178Z,1003.6
2018-07-31T12:03:10.588Z,1003.6
2018-07-31T12:04:12.003Z,1003.6
2018-07-31T12:05:13.405Z,1003.7
2018-07-31T12:06:14.812Z,1003.7
2018-07-31T12:07:16.217Z,1003.8
2018-07-31T12:08:17.627Z,1003.7
2018-07-31T12:09:19.037Z,1003.7
2018-07-31T12:10:20.456Z,1003.7
2018-07-31T12:11:21.853Z,1003.7
2018-07-31T12:12:23.256Z,1003.8
2018-07-31T12:13:24.667Z,1003.6
2018-07-31T12:14:26.086Z,1003.6
2018-07-31T12:15:27.530Z,1003.7
2018-07-31T12:16:28.938Z,1003.7
2018-07-31T12:17:30.352Z,1003.8
2018-07-31T12:18:31.757Z,1003.7
2018-07-31T12:19:33.176Z,1003.7
2018-07-31T12:20:34.585Z,1003.8
2018-07-31T12:21:35.996Z,1003.8
2018-07-31T12:22:37.406Z,1003.9
2018-07-31T12:23:38.818Z,1003.7
2018-07-31T12:24:40.225Z,1003.7
2018-07-31T12:25:41.630Z,1003.7
2018-07-31T12:26:43.047Z,1003.7
2018-07-31T12:27:44.457Z,1003.7
2018-07-31T12:28:45.865Z,1003.8
2018-07-31T12:29:47.272Z,1003.7
2018-07-31T12:30:48.681Z,1003.7
2018-07-31T12:31:50.090Z,1003.8
2018-07-31T12:32:51.577Z,1003.8
2018-07-31T12:33:52.912Z,1003.7
2018-07-31T12:34:54.324Z,1003.8
2018-07-31T12:35:55.731Z,1003.8
2018-07-31T12:36:57.136Z,1003.8
2018-07-31T12:37:58.572Z,1003.8
2018-07-31T12:38:59.985Z,1003.8
2018-07-31T12:40:01.400Z,1003.6
2018-07-31T12:41:02.805Z,1003.6
2018-07-31T12:42:04.214Z,1003.8
2018-07-31T12:43:05.626Z,1003.7
2018-07-31T12:44:07.059Z,1003.8
2018-07-31T12:45:08.445Z,1003.8
2018-07-31T12:46:09.853Z,1003.8